sensor_id;sensor_type;location;lat;lon;timestamp;pressure;altitude;pressure_sealevel;temperature;humidity
18504;BME280;9381;54.244;10.074;2023-07-29T00:00:00;100184.31;;;19.91;100.00
18504;BME280;9381;54.244;10.074;2023-07-29T00:05:01;100184.47;;;19.76;100.00
18504;BME280;9381;54.244;10.074;2023-07-29T00:10:01;100176.31;;;19.66;100.00
18504;BME280;9381;54.244;10.074;2023-07-29T00:15:01;100163.84;;;19.79;100.00
18504;BME280;9381;54.244;10.074;2023-07-29T00:20:02;100153.94;;;19.83;100.00
18504;BME280;9381;54.244;10.074;2023-07-29T00:25:03;100161.31;;;19.87;100.00
18504;BME280;9381;54.244;10.074;2023-07-29T00:30:04;100154.63;;;19.93;100.00
18504;BME280;9381;54.244;10.074;2023-07-29T00:35:05;100154.13;;;19.91;100.00
18504;BME280;9381;54.244;10.074;2023-07-29T00:40:12;100152.97;;;19.97;100.00
18504;BME280;9381;54.244;10.074;2023-07-29T00:45:13;100135.91;;;20.00;100.00
18504;BME280;9381;54.244;10.074;2023-07-29T00:50:14;100138.66;;;20.00;100.00
18504;BME280;9381;54.244;10.074;2023-07-29T00:55:15;100127.38;;;20.02;100.00
18504;BME280;9381;54.244;10.074;2023-07-29T01:00:15;100120.53;;;20.04;100.00
18504;BME280;9381;54.244;10.074;2023-07-29T01:05:17;100119.94;;;20.02;100.00
18504;BME280;9381;54.244;10.074;2023-07-29T01:10:28;100116.94;;;20.04;100.00
18504;BME280;9381;54.244;10.074;2023-07-29T01:20:45;100109.53;;;20.04;100.00
18504;BME280;9381;54.244;10.074;2023-07-29T01:25:47;100107.19;;;19.93;100.00
18504;BME280;9381;54.244;10.074;2023-07-29T01:30:49;100093.81;;;19.86;100.00
18504;BME280;9381;54.244;10.074;2023-07-29T01:35:55;100094.44;;;19.78;100.00
18504;BME280;9381;54.244;10.074;2023-07-29T01:40:58;100107.09;;;19.74;100.00
18504;BME280;9381;54.244;10.074;2023-07-29T01:46:02;100108.22;;;19.73;100.00
18504;BME280;9381;54.244;10.074;2023-07-29T01:51:03;100103.25;;;19.75;100.00
18504;BME280;9381;54.244;10.074;2023-07-29T01:56:03;100094.22;;;19.75;100.00
18504;BME280;9381;54.244;10.074;2023-07-29T02:01:04;100091.13;;;19.81;100.00
18504;BME280;9381;54.244;10.074;2023-07-29T02:06:04;100091.81;;;19.68;100.00
18504;BME280;9381;54.244;10.074;2023-07-29T02:11:04;100090.22;;;19.62;100.00
18504;BME280;9381;54.244;10.074;2023-07-29T02:16:05;100102.78;;;19.68;100.00
18504;BME280;9381;54.244;10.074;2023-07-29T02:21:05;100078.03;;;19.73;100.00
18504;BME280;9381;54.244;10.074;2023-07-29T02:26:05;100076.88;;;19.79;100.00
18504;BME280;9381;54.244;10.074;2023-07-29T02:31:35;100080.50;;;19.75;100.00
18504;BME280;9381;54.244;10.074;2023-07-29T02:36:37;100078.38;;;19.67;100.00
18504;BME280;9381;54.244;10.074;2023-07-29T02:41:37;100052.28;;;19.69;100.00
18504;BME280;9381;54.244;10.074;2023-07-29T02:46:38;100048.50;;;19.65;100.00
18504;BME280;9381;54.244;10.074;2023-07-29T02:51:38;100049.31;;;19.66;100.00
18504;BME280;9381;54.244;10.074;2023-07-29T02:56:38;100053.97;;;19.65;100.00
18504;BME280;9381;54.244;10.074;2023-07-29T03:01:39;100047.34;;;19.71;100.00
18504;BME280;9381;54.244;10.074;2023-07-29T03:06:39;100058.91;;;19.68;100.00
18504;BME280;9381;54.244;10.074;2023-07-29T03:11:39;100045.34;;;19.77;100.00
18504;BME280;9381;54.244;10.074;2023-07-29T03:16:40;100044.00;;;19.74;100.00
18504;BME280;9381;54.244;10.074;2023-07-29T03:21:40;100038.81;;;19.73;100.00
18504;BME280;9381;54.244;10.074;2023-07-29T03:26:40;100050.53;;;19.78;100.00
18504;BME280;9381;54.244;10.074;2023-07-29T03:31:41;100051.53;;;19.87;100.00
18504;BME280;9381;54.244;10.074;2023-07-29T03:36:41;100062.38;;;19.97;100.00
18504;BME280;9381;54.244;10.074;2023-07-29T03:41:41;100061.56;;;19.97;100.00
18504;BME280;9381;54.244;10.074;2023-07-29T03:46:42;100061.41;;;19.88;100.00
18504;BME280;9381;54.244;10.074;2023-07-29T03:51:42;100052.09;;;19.84;100.00
18504;BME280;9381;54.244;10.074;2023-07-29T03:56:42;100046.03;;;19.87;100.00
18504;BME280;9381;54.244;10.074;2023-07-29T04:01:42;100037.16;;;19.95;100.00
18504;BME280;9381;54.244;10.074;2023-07-29T04:06:43;100044.28;;;19.96;100.00
18504;BME280;9381;54.244;10.074;2023-07-29T04:11:43;100044.81;;;19.98;100.00
18504;BME280;9381;54.244;10.074;2023-07-29T04:16:43;100083.88;;;19.67;100.00
18504;BME280;9381;54.244;10.074;2023-07-29T04:21:44;100086.66;;;19.85;100.00
18504;BME280;9381;54.244;10.074;2023-07-29T04:26:44;100055.94;;;19.83;100.00
18504;BME280;9381;54.244;10.074;2023-07-29T04:31:44;100050.59;;;19.73;100.00
18504;BME280;9381;54.244;10.074;2023-07-29T04:36:46;100059.34;;;19.75;100.00
18504;BME280;9381;54.244;10.074;2023-07-29T04:41:46;100049.16;;;19.81;100.00
18504;BME280;9381;54.244;10.074;2023-07-29T04:46:47;100028.06;;;19.76;100.00
18504;BME280;9381;54.244;10.074;2023-07-29T04:51:47;100038.50;;;19.74;100.00
18504;BME280;9381;54.244;10.074;2023-07-29T04:56:47;100042.84;;;19.80;100.00
18504;BME280;9381;54.244;10.074;2023-07-29T05:01:47;100033.19;;;19.83;100.00
18504;BME280;9381;54.244;10.074;2023-07-29T05:06:48;100028.38;;;19.93;100.00
18504;BME280;9381;54.244;10.074;2023-07-29T05:11:48;100029.34;;;20.07;100.00
18504;BME280;9381;54.244;10.074;2023-07-29T05:16:49;100025.34;;;20.18;100.00
18504;BME280;9381;54.244;10.074;2023-07-29T05:21:49;100022.94;;;20.30;100.00
18504;BME280;9381;54.244;10.074;2023-07-29T05:26:49;100019.13;;;20.31;100.00
18504;BME280;9381;54.244;10.074;2023-07-29T05:31:50;100021.50;;;20.38;100.00
18504;BME280;9381;54.244;10.074;2023-07-29T05:36:50;100017.75;;;20.47;100.00
18504;BME280;9381;54.244;10.074;2023-07-29T05:41:50;100014.34;;;20.55;100.00
18504;BME280;9381;54.244;10.074;2023-07-29T05:46:50;100014.28;;;20.60;100.00
18504;BME280;9381;54.244;10.074;2023-07-29T05:51:51;100008.84;;;20.55;100.00
18504;BME280;9381;54.244;10.074;2023-07-29T05:56:52;100006.53;;;20.62;100.00
18504;BME280;9381;54.244;10.074;2023-07-29T06:01:53;100009.50;;;20.66;100.00
18504;BME280;9381;54.244;10.074;2023-07-29T06:06:53;100000.88;;;20.91;100.00
18504;BME280;9381;54.244;10.074;2023-07-29T06:11:55;100002.13;;;21.12;100.00
18504;BME280;9381;54.244;10.074;2023-07-29T06:16:55;99996.03;;;21.28;100.00
18504;BME280;9381;54.244;10.074;2023-07-29T06:21:56;99993.31;;;21.55;100.00
18504;BME280;9381;54.244;10.074;2023-07-29T06:26:56;100009.72;;;21.60;100.00
18504;BME280;9381;54.244;10.074;2023-07-29T06:31:58;100003.00;;;21.79;100.00
18504;BME280;9381;54.244;10.074;2023-07-29T06:36:58;99996.28;;;21.72;100.00
18504;BME280;9381;54.244;10.074;2023-07-29T06:41:58;100004.44;;;21.77;100.00
18504;BME280;9381;54.244;10.074;2023-07-29T06:46:59;99993.53;;;21.85;100.00
18504;BME280;9381;54.244;10.074;2023-07-29T06:51:59;99991.47;;;22.04;100.00
18504;BME280;9381;54.244;10.074;2023-07-29T06:57:00;99983.75;;;22.28;100.00
18504;BME280;9381;54.244;10.074;2023-07-29T07:02:00;99983.94;;;22.32;100.00
18504;BME280;9381;54.244;10.074;2023-07-29T07:07:02;99976.97;;;22.34;100.00
18504;BME280;9381;54.244;10.074;2023-07-29T07:12:02;99988.19;;;22.38;100.00
18504;BME280;9381;54.244;10.074;2023-07-29T07:17:03;99987.69;;;22.49;100.00
18504;BME280;9381;54.244;10.074;2023-07-29T07:22:03;99979.44;;;22.36;100.00
18504;BME280;9381;54.244;10.074;2023-07-29T07:27:04;99981.53;;;22.52;100.00
18504;BME280;9381;54.244;10.074;2023-07-29T07:32:04;99973.34;;;22.61;100.00
18504;BME280;9381;54.244;10.074;2023-07-29T07:37:05;99976.78;;;22.31;100.00
18504;BME280;9381;54.244;10.074;2023-07-29T07:42:06;99975.72;;;22.76;100.00
18504;BME280;9381;54.244;10.074;2023-07-29T07:47:06;99973.06;;;22.93;100.00
18504;BME280;9381;54.244;10.074;2023-07-29T07:52:06;99976.84;;;22.75;100.00
18504;BME280;9381;54.244;10.074;2023-07-29T07:57:07;99981.22;;;22.98;100.00
18504;BME280;9381;54.244;10.074;2023-07-29T08:02:07;99979.47;;;22.80;100.00
18504;BME280;9381;54.244;10.074;2023-07-29T08:07:07;99975.22;;;22.74;100.00
18504;BME280;9381;54.244;10.074;2023-07-29T08:12:08;99975.16;;;22.43;100.00
18504;BME280;9381;54.244;10.074;2023-07-29T08:17:10;99986.06;;;22.48;100.00
18504;BME280;9381;54.244;10.074;2023-07-29T08:22:10;99984.22;;;22.66;100.00
18504;BME280;9381;54.244;10.074;2023-07-29T08:27:11;99977.28;;;22.68;100.00
18504;BME280;9381;54.244;10.074;2023-07-29T08:32:11;99967.28;;;23.03;100.00
18504;BME280;9381;54.244;10.074;2023-07-29T08:37:11;99974.69;;;23.16;100.00
18504;BME280;9381;54.244;10.074;2023-07-29T08:42:12;99974.22;;;23.61;100.00
18504;BME280;9381;54.244;10.074;2023-07-29T08:47:13;99964.78;;;24.10;100.00
18504;BME280;9381;54.244;10.074;2023-07-29T08:52:14;99964.81;;;24.27;100.00
18504;BME280;9381;54.244;10.074;2023-07-29T08:57:15;99958.63;;;24.46;98.38
18504;BME280;9381;54.244;10.074;2023-07-29T09:02:15;99950.97;;;24.35;99.57
18504;BME280;9381;54.244;10.074;2023-07-29T09:07:16;99956.34;;;24.65;97.68
18504;BME280;9381;54.244;10.074;2023-07-29T09:12:16;99946.88;;;24.49;95.19
18504;BME280;9381;54.244;10.074;2023-07-29T09:17:17;99956.00;;;24.16;96.59
18504;BME280;9381;54.244;10.074;2023-07-29T09:22:19;99953.72;;;24.10;98.15
18504;BME280;9381;54.244;10.074;2023-07-29T09:27:26;99948.22;;;24.01;95.64
18504;BME280;9381;54.244;10.074;2023-07-29T09:32:27;99952.75;;;23.97;96.56
18504;BME280;9381;54.244;10.074;2023-07-29T09:37:27;99951.91;;;23.88;97.88
18504;BME280;9381;54.244;10.074;2023-07-29T09:42:28;99938.19;;;23.66;96.77
18504;BME280;9381;54.244;10.074;2023-07-29T09:47:28;99946.97;;;23.68;97.59
18504;BME280;9381;54.244;10.074;2023-07-29T09:52:30;99930.19;;;24.54;92.87
18504;BME280;9381;54.244;10.074;2023-07-29T09:57:30;99919.00;;;25.72;93.33
18504;BME280;9381;54.244;10.074;2023-07-29T10:02:31;99925.28;;;25.14;86.77
18504;BME280;9381;54.244;10.074;2023-07-29T10:07:33;99939.44;;;24.58;90.42
18504;BME280;9381;54.244;10.074;2023-07-29T10:12:35;99933.59;;;24.35;89.75
18504;BME280;9381;54.244;10.074;2023-07-29T10:17:36;99930.63;;;24.73;90.36
18504;BME280;9381;54.244;10.074;2023-07-29T10:22:42;99935.78;;;25.00;89.01
18504;BME280;9381;54.244;10.074;2023-07-29T10:27:49;99920.63;;;25.52;81.86
18504;BME280;9381;54.244;10.074;2023-07-29T10:32:52;99914.75;;;26.44;80.77
18504;BME280;9381;54.244;10.074;2023-07-29T10:37:53;99901.34;;;27.71;79.89
18504;BME280;9381;54.244;10.074;2023-07-29T10:43:03;99904.34;;;28.29;73.44
18504;BME280;9381;54.244;10.074;2023-07-29T10:48:10;99904.69;;;27.65;71.77
18504;BME280;9381;54.244;10.074;2023-07-29T10:53:10;99894.78;;;28.15;70.88
18504;BME280;9381;54.244;10.074;2023-07-29T10:58:15;99888.72;;;28.25;70.51
18504;BME280;9381;54.244;10.074;2023-07-29T11:03:19;99908.13;;;26.69;72.30
18504;BME280;9381;54.244;10.074;2023-07-29T11:08:29;99899.41;;;26.79;73.68
18504;BME280;9381;54.244;10.074;2023-07-29T11:13:30;99907.81;;;27.15;71.85
18504;BME280;9381;54.244;10.074;2023-07-29T11:18:33;99909.44;;;26.72;74.54
18504;BME280;9381;54.244;10.074;2023-07-29T11:23:35;99895.84;;;26.58;73.34
18504;BME280;9381;54.244;10.074;2023-07-29T11:28:39;99904.06;;;26.55;74.29
18504;BME280;9381;54.244;10.074;2023-07-29T11:33:40;99898.56;;;26.46;74.38
18504;BME280;9381;54.244;10.074;2023-07-29T11:38:40;99890.47;;;27.90;71.15
18504;BME280;9381;54.244;10.074;2023-07-29T11:43:40;99876.06;;;28.82;69.51
18504;BME280;9381;54.244;10.074;2023-07-29T11:48:44;99884.97;;;28.45;66.31
18504;BME280;9381;54.244;10.074;2023-07-29T11:53:44;99868.78;;;28.23;67.86
18504;BME280;9381;54.244;10.074;2023-07-29T11:58:45;99878.81;;;29.10;67.44
18504;BME280;9381;54.244;10.074;2023-07-29T12:03:45;99872.78;;;29.23;65.51
18504;BME280;9381;54.244;10.074;2023-07-29T12:08:46;99877.84;;;28.75;66.68
18504;BME280;9381;54.244;10.074;2023-07-29T12:13:46;99881.47;;;28.91;67.17
18504;BME280;9381;54.244;10.074;2023-07-29T12:18:50;99892.44;;;27.78;67.44
18504;BME280;9381;54.244;10.074;2023-07-29T12:23:50;99908.59;;;27.04;69.33
18504;BME280;9381;54.244;10.074;2023-07-29T12:28:51;99910.78;;;26.98;72.26
18504;BME280;9381;54.244;10.074;2023-07-29T12:33:56;99909.09;;;27.54;69.95
18504;BME280;9381;54.244;10.074;2023-07-29T12:38:59;99908.22;;;27.05;72.26
18504;BME280;9381;54.244;10.074;2023-07-29T12:43:59;99911.13;;;26.52;73.85
18504;BME280;9381;54.244;10.074;2023-07-29T12:48:59;99912.56;;;26.70;72.07
18504;BME280;9381;54.244;10.074;2023-07-29T12:54:00;99922.69;;;25.84;73.60
18504;BME280;9381;54.244;10.074;2023-07-29T12:59:01;99919.75;;;25.89;73.63
18504;BME280;9381;54.244;10.074;2023-07-29T13:04:01;99915.28;;;26.38;74.21
18504;BME280;9381;54.244;10.074;2023-07-29T13:09:02;99912.34;;;26.87;69.68
18504;BME280;9381;54.244;10.074;2023-07-29T13:14:03;99911.53;;;27.55;68.63
18504;BME280;9381;54.244;10.074;2023-07-29T13:19:03;99909.34;;;28.24;67.17
18504;BME280;9381;54.244;10.074;2023-07-29T13:24:04;99924.28;;;27.44;68.05
18504;BME280;9381;54.244;10.074;2023-07-29T13:29:04;99924.16;;;27.41;69.45
18504;BME280;9381;54.244;10.074;2023-07-29T13:34:04;99936.28;;;27.60;69.88
18504;BME280;9381;54.244;10.074;2023-07-29T13:39:04;99936.50;;;27.19;70.24
18504;BME280;9381;54.244;10.074;2023-07-29T13:44:05;99929.59;;;27.73;66.03
18504;BME280;9381;54.244;10.074;2023-07-29T13:49:05;99935.75;;;27.67;65.61
18504;BME280;9381;54.244;10.074;2023-07-29T13:54:05;99930.59;;;28.56;66.98
18504;BME280;9381;54.244;10.074;2023-07-29T13:59:05;99927.94;;;28.75;65.96
18504;BME280;9381;54.244;10.074;2023-07-29T14:04:06;99925.28;;;28.11;64.66
18504;BME280;9381;54.244;10.074;2023-07-29T14:09:06;99941.75;;;27.45;67.46
18504;BME280;9381;54.244;10.074;2023-07-29T14:14:07;99954.09;;;26.58;68.53
18504;BME280;9381;54.244;10.074;2023-07-29T14:19:07;99955.00;;;27.15;69.18
18504;BME280;9381;54.244;10.074;2023-07-29T14:24:07;99961.03;;;27.17;66.81
18504;BME280;9381;54.244;10.074;2023-07-29T14:29:08;99947.75;;;26.58;70.44
18504;BME280;9381;54.244;10.074;2023-07-29T14:34:09;99948.44;;;27.44;71.73
18504;BME280;9381;54.244;10.074;2023-07-29T14:39:09;99950.66;;;27.86;70.43
18504;BME280;9381;54.244;10.074;2023-07-29T14:44:09;99944.66;;;27.72;71.03
18504;BME280;9381;54.244;10.074;2023-07-29T14:49:10;99926.91;;;27.65;70.14
18504;BME280;9381;54.244;10.074;2023-07-29T14:54:10;99929.00;;;27.44;69.31
18504;BME280;9381;54.244;10.074;2023-07-29T14:59:10;99923.13;;;27.45;69.12
18504;BME280;9381;54.244;10.074;2023-07-29T15:04:11;99934.44;;;26.84;69.85
18504;BME280;9381;54.244;10.074;2023-07-29T15:09:11;99933.47;;;26.47;70.91
18504;BME280;9381;54.244;10.074;2023-07-29T15:14:11;99945.31;;;26.56;70.36
18504;BME280;9381;54.244;10.074;2023-07-29T15:19:12;99943.97;;;26.62;72.13
18504;BME280;9381;54.244;10.074;2023-07-29T15:24:14;99948.25;;;26.72;71.50
18504;BME280;9381;54.244;10.074;2023-07-29T15:29:14;99963.91;;;26.56;70.77
18504;BME280;9381;54.244;10.074;2023-07-29T15:34:14;99959.72;;;26.29;70.63
18504;BME280;9381;54.244;10.074;2023-07-29T15:39:15;99957.50;;;26.43;70.26
18504;BME280;9381;54.244;10.074;2023-07-29T15:44:16;99967.22;;;26.08;70.96
18504;BME280;9381;54.244;10.074;2023-07-29T15:49:16;99971.44;;;26.55;71.53
18504;BME280;9381;54.244;10.074;2023-07-29T15:54:16;99965.44;;;26.53;71.24
18504;BME280;9381;54.244;10.074;2023-07-29T15:59:16;99960.31;;;26.14;71.46
18504;BME280;9381;54.244;10.074;2023-07-29T16:04:17;99967.00;;;25.84;72.31
18504;BME280;9381;54.244;10.074;2023-07-29T16:09:17;99968.78;;;25.60;73.64
18504;BME280;9381;54.244;10.074;2023-07-29T16:14:21;99978.00;;;25.43;73.78
18504;BME280;9381;54.244;10.074;2023-07-29T16:19:24;99979.03;;;25.13;74.09
18504;BME280;9381;54.244;10.074;2023-07-29T16:24:25;99984.59;;;24.96;74.32
18504;BME280;9381;54.244;10.074;2023-07-29T16:29:25;99984.91;;;25.03;75.12
18504;BME280;9381;54.244;10.074;2023-07-29T16:34:26;99998.31;;;24.34;77.06
18504;BME280;9381;54.244;10.074;2023-07-29T16:39:26;99998.28;;;24.50;78.31
18504;BME280;9381;54.244;10.074;2023-07-29T16:44:26;100002.84;;;24.46;79.26
18504;BME280;9381;54.244;10.074;2023-07-29T16:49:27;100003.03;;;24.58;79.07
18504;BME280;9381;54.244;10.074;2023-07-29T16:54:27;99998.59;;;24.40;77.54
18504;BME280;9381;54.244;10.074;2023-07-29T16:59:28;100007.75;;;24.66;77.60
18504;BME280;9381;54.244;10.074;2023-07-29T17:04:28;100007.22;;;24.47;77.18
18504;BME280;9381;54.244;10.074;2023-07-29T17:09:28;99997.81;;;24.82;77.50
18504;BME280;9381;54.244;10.074;2023-07-29T17:14:29;100000.25;;;24.58;76.96
18504;BME280;9381;54.244;10.074;2023-07-29T17:19:29;100001.69;;;24.31;77.60
18504;BME280;9381;54.244;10.074;2023-07-29T17:24:29;100018.59;;;24.21;78.54
18504;BME280;9381;54.244;10.074;2023-07-29T17:29:30;100017.28;;;24.18;79.12
18504;BME280;9381;54.244;10.074;2023-07-29T17:34:31;100019.03;;;23.89;83.23
18504;BME280;9381;54.244;10.074;2023-07-29T17:39:32;100019.34;;;23.57;87.01
18504;BME280;9381;54.244;10.074;2023-07-29T17:44:32;100024.31;;;23.38;90.29
18504;BME280;9381;54.244;10.074;2023-07-29T17:49:32;100022.09;;;23.18;91.88
18504;BME280;9381;54.244;10.074;2023-07-29T17:54:33;100033.47;;;23.03;92.88
18504;BME280;9381;54.244;10.074;2023-07-29T17:59:33;100030.88;;;22.98;92.95
18504;BME280;9381;54.244;10.074;2023-07-29T18:04:34;100036.97;;;22.95;93.45
18504;BME280;9381;54.244;10.074;2023-07-29T18:09:34;100033.34;;;22.86;94.24
18504;BME280;9381;54.244;10.074;2023-07-29T18:14:34;100038.38;;;22.84;94.37
18504;BME280;9381;54.244;10.074;2023-07-29T18:19:38;100037.00;;;22.73;96.02
18504;BME280;9381;54.244;10.074;2023-07-29T18:24:41;100044.09;;;22.65;96.19
18504;BME280;9381;54.244;10.074;2023-07-29T18:29:42;100052.25;;;22.57;96.88
18504;BME280;9381;54.244;10.074;2023-07-29T18:34:42;100072.28;;;22.49;96.67
18504;BME280;9381;54.244;10.074;2023-07-29T18:39:42;100066.41;;;22.28;96.06
18504;BME280;9381;54.244;10.074;2023-07-29T18:44:43;100077.13;;;22.16;96.93
18504;BME280;9381;54.244;10.074;2023-07-29T18:49:44;100081.50;;;22.04;96.65
18504;BME280;9381;54.244;10.074;2023-07-29T18:54:44;100086.84;;;21.87;96.64
18504;BME280;9381;54.244;10.074;2023-07-29T18:59:45;100076.22;;;21.94;94.93
18504;BME280;9381;54.244;10.074;2023-07-29T19:04:46;100096.19;;;21.86;94.69
18504;BME280;9381;54.244;10.074;2023-07-29T19:09:48;100090.09;;;21.89;94.06
18504;BME280;9381;54.244;10.074;2023-07-29T19:14:48;100096.41;;;21.76;92.78
18504;BME280;9381;54.244;10.074;2023-07-29T19:19:49;100098.22;;;21.67;90.20
18504;BME280;9381;54.244;10.074;2023-07-29T19:24:49;100102.88;;;21.53;88.81
18504;BME280;9381;54.244;10.074;2023-07-29T19:29:50;100112.84;;;21.49;87.37
18504;BME280;9381;54.244;10.074;2023-07-29T19:34:53;100120.94;;;21.27;87.31
18504;BME280;9381;54.244;10.074;2023-07-29T19:39:55;100119.38;;;20.89;87.98
18504;BME280;9381;54.244;10.074;2023-07-29T19:44:55;100124.72;;;20.99;87.38
18504;BME280;9381;54.244;10.074;2023-07-29T19:49:55;100116.91;;;20.88;88.38
18504;BME280;9381;54.244;10.074;2023-07-29T19:54:56;100113.78;;;20.94;87.35
18504;BME280;9381;54.244;10.074;2023-07-29T19:59:56;100115.78;;;20.70;88.73
18504;BME280;9381;54.244;10.074;2023-07-29T20:04:56;100113.84;;;20.52;89.18
18504;BME280;9381;54.244;10.074;2023-07-29T20:09:57;100114.31;;;20.59;89.32
18504;BME280;9381;54.244;10.074;2023-07-29T20:14:57;100120.75;;;20.50;89.49
18504;BME280;9381;54.244;10.074;2023-07-29T20:20:00;100119.97;;;20.26;91.30
18504;BME280;9381;54.244;10.074;2023-07-29T20:25:01;100126.78;;;20.10;92.32
18504;BME280;9381;54.244;10.074;2023-07-29T20:30:02;100130.41;;;20.05;93.21
18504;BME280;9381;54.244;10.074;2023-07-29T20:35:02;100135.19;;;19.90;94.53
18504;BME280;9381;54.244;10.074;2023-07-29T20:40:03;100141.56;;;19.85;94.93
18504;BME280;9381;54.244;10.074;2023-07-29T20:45:04;100130.69;;;19.75;95.87
18504;BME280;9381;54.244;10.074;2023-07-29T20:50:05;100129.53;;;19.81;95.93
18504;BME280;9381;54.244;10.074;2023-07-29T20:55:06;100138.03;;;19.80;96.39
18504;BME280;9381;54.244;10.074;2023-07-29T21:00:07;100134.53;;;19.74;97.10
18504;BME280;9381;54.244;10.074;2023-07-29T21:05:10;100143.50;;;19.56;98.30
18504;BME280;9381;54.244;10.074;2023-07-29T21:10:10;100146.84;;;19.53;99.25
18504;BME280;9381;54.244;10.074;2023-07-29T21:15:11;100150.19;;;19.74;97.75
18504;BME280;9381;54.244;10.074;2023-07-29T21:20:12;100151.22;;;19.54;98.90
18504;BME280;9381;54.244;10.074;2023-07-29T21:25:12;100144.19;;;19.43;100.00
18504;BME280;9381;54.244;10.074;2023-07-29T21:30:12;100135.69;;;19.45;100.00
18504;BME280;9381;54.244;10.074;2023-07-29T21:35:13;100136.00;;;19.38;100.00
18504;BME280;9381;54.244;10.074;2023-07-29T21:40:13;100140.44;;;19.34;100.00
18504;BME280;9381;54.244;10.074;2023-07-29T21:45:14;100140.44;;;19.34;100.00
18504;BME280;9381;54.244;10.074;2023-07-29T21:50:15;100136.91;;;19.29;100.00
18504;BME280;9381;54.244;10.074;2023-07-29T21:55:15;100132.88;;;19.16;100.00
18504;BME280;9381;54.244;10.074;2023-07-29T22:00:15;100144.50;;;19.03;100.00
18504;BME280;9381;54.244;10.074;2023-07-29T22:05:16;100151.13;;;18.97;100.00
18504;BME280;9381;54.244;10.074;2023-07-29T22:10:16;100138.44;;;19.06;100.00
18504;BME280;9381;54.244;10.074;2023-07-29T22:15:16;100138.00;;;18.89;100.00
18504;BME280;9381;54.244;10.074;2023-07-29T22:20:17;100141.34;;;18.81;100.00
18504;BME280;9381;54.244;10.074;2023-07-29T22:25:17;100145.78;;;18.77;100.00
18504;BME280;9381;54.244;10.074;2023-07-29T22:30:17;100143.31;;;18.76;100.00
18504;BME280;9381;54.244;10.074;2023-07-29T22:35:18;100148.47;;;18.82;100.00
18504;BME280;9381;54.244;10.074;2023-07-29T22:40:18;100144.16;;;18.76;100.00
18504;BME280;9381;54.244;10.074;2023-07-29T22:45:19;100154.34;;;18.66;100.00
18504;BME280;9381;54.244;10.074;2023-07-29T22:50:19;100150.81;;;18.60;100.00
18504;BME280;9381;54.244;10.074;2023-07-29T22:55:20;100153.50;;;18.65;100.00
18504;BME280;9381;54.244;10.074;2023-07-29T23:00:20;100151.91;;;18.59;100.00
18504;BME280;9381;54.244;10.074;2023-07-29T23:05:20;100157.16;;;18.51;100.00
18504;BME280;9381;54.244;10.074;2023-07-29T23:10:21;100145.38;;;18.50;100.00
18504;BME280;9381;54.244;10.074;2023-07-29T23:15:21;100148.13;;;18.50;100.00
18504;BME280;9381;54.244;10.074;2023-07-29T23:20:21;100152.81;;;18.45;100.00
18504;BME280;9381;54.244;10.074;2023-07-29T23:25:21;100146.56;;;18.34;100.00
18504;BME280;9381;54.244;10.074;2023-07-29T23:30:22;100145.16;;;18.42;100.00
18504;BME280;9381;54.244;10.074;2023-07-29T23:35:22;100146.84;;;18.28;100.00
18504;BME280;9381;54.244;10.074;2023-07-29T23:40:23;100140.84;;;18.26;100.00
18504;BME280;9381;54.244;10.074;2023-07-29T23:45:23;100136.72;;;18.23;100.00
18504;BME280;9381;54.244;10.074;2023-07-29T23:50:24;100124.69;;;18.19;100.00
18504;BME280;9381;54.244;10.074;2023-07-29T23:55:24;100125.56;;;18.10;100.00
